sensor_id;sensor_type;location;lat;lon;timestamp;P1;durP1;ratioP1;P2;durP2;ratioP2
17832;SDS011;9041;49.718;21.798;2023-02-26T00:00:27;7.70;;;4.50;;
17832;SDS011;9041;49.718;21.798;2023-02-26T00:02:54;7.83;;;4.70;;
17832;SDS011;9041;49.718;21.798;2023-02-26T00:05:21;20.00;;;6.67;;
17832;SDS011;9041;49.718;21.798;2023-02-26T00:07:47;6.57;;;4.37;;
17832;SDS011;9041;49.718;21.798;2023-02-26T00:10:14;10.13;;;4.87;;
17832;SDS011;9041;49.718;21.798;2023-02-26T00:12:43;11.03;;;4.30;;
17832;SDS011;9041;49.718;21.798;2023-02-26T00:15:15;9.50;;;4.43;;
17832;SDS011;9041;49.718;21.798;2023-02-26T00:17:44;5.93;;;3.97;;
17832;SDS011;9041;49.718;21.798;2023-02-26T00:20:14;8.43;;;4.40;;
17832;SDS011;9041;49.718;21.798;2023-02-26T00:22:42;10.53;;;4.93;;
17832;SDS011;9041;49.718;21.798;2023-02-26T00:25:11;9.77;;;4.30;;
17832;SDS011;9041;49.718;21.798;2023-02-26T00:27:38;10.37;;;5.10;;
17832;SDS011;9041;49.718;21.798;2023-02-26T00:30:09;9.07;;;4.77;;
17832;SDS011;9041;49.718;21.798;2023-02-26T00:32:37;6.47;;;4.23;;
17832;SDS011;9041;49.718;21.798;2023-02-26T00:35:05;11.87;;;4.90;;
17832;SDS011;9041;49.718;21.798;2023-02-26T00:37:36;12.43;;;6.17;;
17832;SDS011;9041;49.718;21.798;2023-02-26T00:40:26;8.70;;;4.47;;
17832;SDS011;9041;49.718;21.798;2023-02-26T00:42:56;9.70;;;4.90;;
17832;SDS011;9041;49.718;21.798;2023-02-26T00:45:25;8.97;;;5.03;;
17832;SDS011;9041;49.718;21.798;2023-02-26T00:47:54;15.23;;;6.70;;
17832;SDS011;9041;49.718;21.798;2023-02-26T00:50:31;7.83;;;5.07;;
17832;SDS011;9041;49.718;21.798;2023-02-26T00:53:02;10.23;;;4.60;;
17832;SDS011;9041;49.718;21.798;2023-02-26T00:55:33;7.17;;;4.33;;
17832;SDS011;9041;49.718;21.798;2023-02-26T00:58:00;6.53;;;4.07;;
17832;SDS011;9041;49.718;21.798;2023-02-26T01:00:28;7.67;;;4.37;;
17832;SDS011;9041;49.718;21.798;2023-02-26T01:02:55;9.10;;;4.80;;
17832;SDS011;9041;49.718;21.798;2023-02-26T01:05:23;9.93;;;4.40;;
17832;SDS011;9041;49.718;21.798;2023-02-26T01:07:51;7.97;;;4.63;;
17832;SDS011;9041;49.718;21.798;2023-02-26T01:10:22;9.30;;;4.77;;
17832;SDS011;9041;49.718;21.798;2023-02-26T01:12:49;8.87;;;5.10;;
17832;SDS011;9041;49.718;21.798;2023-02-26T01:15:16;10.10;;;5.20;;
17832;SDS011;9041;49.718;21.798;2023-02-26T01:17:49;8.87;;;5.20;;
17832;SDS011;9041;49.718;21.798;2023-02-26T01:20:20;8.80;;;5.37;;
17832;SDS011;9041;49.718;21.798;2023-02-26T01:22:50;7.57;;;4.97;;
17832;SDS011;9041;49.718;21.798;2023-02-26T01:25:20;8.33;;;5.57;;
17832;SDS011;9041;49.718;21.798;2023-02-26T01:27:50;8.63;;;4.73;;
17832;SDS011;9041;49.718;21.798;2023-02-26T01:30:17;10.37;;;5.47;;
17832;SDS011;9041;49.718;21.798;2023-02-26T01:32:47;9.97;;;5.33;;
17832;SDS011;9041;49.718;21.798;2023-02-26T01:35:20;17.90;;;7.40;;
17832;SDS011;9041;49.718;21.798;2023-02-26T01:38:00;17.40;;;7.30;;
17832;SDS011;9041;49.718;21.798;2023-02-26T01:40:33;10.27;;;5.50;;
17832;SDS011;9041;49.718;21.798;2023-02-26T01:43:06;9.73;;;5.40;;
17832;SDS011;9041;49.718;21.798;2023-02-26T01:45:37;11.27;;;5.80;;
17832;SDS011;9041;49.718;21.798;2023-02-26T01:48:10;9.20;;;5.20;;
17832;SDS011;9041;49.718;21.798;2023-02-26T01:50:43;12.63;;;5.97;;
17832;SDS011;9041;49.718;21.798;2023-02-26T01:53:17;10.20;;;5.07;;
17832;SDS011;9041;49.718;21.798;2023-02-26T01:55:47;9.23;;;5.60;;
17832;SDS011;9041;49.718;21.798;2023-02-26T01:58:17;11.00;;;5.17;;
17832;SDS011;9041;49.718;21.798;2023-02-26T02:00:45;10.97;;;5.93;;
17832;SDS011;9041;49.718;21.798;2023-02-26T02:03:13;10.63;;;5.43;;
17832;SDS011;9041;49.718;21.798;2023-02-26T02:05:41;10.47;;;5.60;;
17832;SDS011;9041;49.718;21.798;2023-02-26T02:08:10;11.33;;;5.87;;
17832;SDS011;9041;49.718;21.798;2023-02-26T02:10:39;7.93;;;5.53;;
17832;SDS011;9041;49.718;21.798;2023-02-26T02:13:09;9.90;;;5.53;;
17832;SDS011;9041;49.718;21.798;2023-02-26T02:15:42;9.23;;;5.30;;
17832;SDS011;9041;49.718;21.798;2023-02-26T02:18:15;10.53;;;5.37;;
17832;SDS011;9041;49.718;21.798;2023-02-26T02:20:58;10.83;;;5.53;;
17832;SDS011;9041;49.718;21.798;2023-02-26T02:23:56;10.23;;;5.63;;
17832;SDS011;9041;49.718;21.798;2023-02-26T02:26:33;10.83;;;5.40;;
17832;SDS011;9041;49.718;21.798;2023-02-26T02:29:29;10.30;;;5.17;;
17832;SDS011;9041;49.718;21.798;2023-02-26T02:32:20;12.80;;;5.37;;
17832;SDS011;9041;49.718;21.798;2023-02-26T02:34:48;11.97;;;5.13;;
17832;SDS011;9041;49.718;21.798;2023-02-26T02:37:18;11.23;;;5.20;;
17832;SDS011;9041;49.718;21.798;2023-02-26T02:39:50;10.30;;;5.20;;
17832;SDS011;9041;49.718;21.798;2023-02-26T02:42:23;8.93;;;5.90;;
17832;SDS011;9041;49.718;21.798;2023-02-26T02:44:54;9.67;;;5.37;;
17832;SDS011;9041;49.718;21.798;2023-02-26T02:47:24;10.10;;;5.33;;
17832;SDS011;9041;49.718;21.798;2023-02-26T02:49:55;9.20;;;5.57;;
17832;SDS011;9041;49.718;21.798;2023-02-26T02:52:28;10.57;;;5.93;;
17832;SDS011;9041;49.718;21.798;2023-02-26T02:54:58;11.33;;;5.80;;
17832;SDS011;9041;49.718;21.798;2023-02-26T02:57:32;8.70;;;5.60;;
17832;SDS011;9041;49.718;21.798;2023-02-26T03:00:03;8.03;;;5.43;;
17832;SDS011;9041;49.718;21.798;2023-02-26T03:02:35;9.93;;;5.67;;
17832;SDS011;9041;49.718;21.798;2023-02-26T03:05:04;8.10;;;4.93;;
17832;SDS011;9041;49.718;21.798;2023-02-26T03:07:32;11.77;;;5.87;;
17832;SDS011;9041;49.718;21.798;2023-02-26T03:10:01;9.27;;;5.30;;
17832;SDS011;9041;49.718;21.798;2023-02-26T03:12:29;9.00;;;5.77;;
17832;SDS011;9041;49.718;21.798;2023-02-26T03:14:57;11.37;;;5.83;;
17832;SDS011;9041;49.718;21.798;2023-02-26T03:17:25;9.80;;;5.50;;
17832;SDS011;9041;49.718;21.798;2023-02-26T03:20:02;11.67;;;6.77;;
17832;SDS011;9041;49.718;21.798;2023-02-26T03:22:37;9.87;;;5.83;;
17832;SDS011;9041;49.718;21.798;2023-02-26T03:25:07;10.93;;;5.83;;
17832;SDS011;9041;49.718;21.798;2023-02-26T03:27:35;9.97;;;6.10;;
17832;SDS011;9041;49.718;21.798;2023-02-26T03:30:08;9.67;;;5.27;;
17832;SDS011;9041;49.718;21.798;2023-02-26T03:32:41;13.93;;;6.30;;
17832;SDS011;9041;49.718;21.798;2023-02-26T03:35:14;12.60;;;5.80;;
17832;SDS011;9041;49.718;21.798;2023-02-26T03:37:43;10.23;;;5.17;;
17832;SDS011;9041;49.718;21.798;2023-02-26T03:40:14;14.97;;;6.90;;
17832;SDS011;9041;49.718;21.798;2023-02-26T03:42:43;11.43;;;6.60;;
17832;SDS011;9041;49.718;21.798;2023-02-26T03:45:13;11.13;;;5.60;;
17832;SDS011;9041;49.718;21.798;2023-02-26T03:47:41;10.80;;;5.37;;
17832;SDS011;9041;49.718;21.798;2023-02-26T03:50:12;11.20;;;5.37;;
17832;SDS011;9041;49.718;21.798;2023-02-26T03:52:42;10.17;;;5.47;;
17832;SDS011;9041;49.718;21.798;2023-02-26T03:55:11;10.70;;;5.37;;
17832;SDS011;9041;49.718;21.798;2023-02-26T03:57:41;9.63;;;5.37;;
17832;SDS011;9041;49.718;21.798;2023-02-26T04:00:09;11.50;;;5.87;;
17832;SDS011;9041;49.718;21.798;2023-02-26T04:02:37;10.17;;;5.93;;
17832;SDS011;9041;49.718;21.798;2023-02-26T04:05:09;11.07;;;6.40;;
17832;SDS011;9041;49.718;21.798;2023-02-26T04:07:39;12.80;;;5.93;;
17832;SDS011;9041;49.718;21.798;2023-02-26T04:10:06;9.90;;;4.97;;
17832;SDS011;9041;49.718;21.798;2023-02-26T04:12:35;8.17;;;4.70;;
17832;SDS011;9041;49.718;21.798;2023-02-26T04:15:02;10.87;;;5.07;;
17832;SDS011;9041;49.718;21.798;2023-02-26T04:17:30;9.37;;;5.17;;
17832;SDS011;9041;49.718;21.798;2023-02-26T04:19:56;9.33;;;5.10;;
17832;SDS011;9041;49.718;21.798;2023-02-26T04:22:23;9.17;;;5.13;;
17832;SDS011;9041;49.718;21.798;2023-02-26T04:24:51;6.97;;;4.33;;
17832;SDS011;9041;49.718;21.798;2023-02-26T04:27:18;8.97;;;4.77;;
17832;SDS011;9041;49.718;21.798;2023-02-26T04:29:45;8.30;;;4.80;;
17832;SDS011;9041;49.718;21.798;2023-02-26T04:32:12;8.80;;;4.63;;
17832;SDS011;9041;49.718;21.798;2023-02-26T04:34:38;9.43;;;4.37;;
17832;SDS011;9041;49.718;21.798;2023-02-26T04:37:05;6.93;;;4.60;;
17832;SDS011;9041;49.718;21.798;2023-02-26T04:39:32;7.53;;;4.40;;
17832;SDS011;9041;49.718;21.798;2023-02-26T04:42:00;7.93;;;4.93;;
17832;SDS011;9041;49.718;21.798;2023-02-26T04:44:28;7.90;;;5.10;;
17832;SDS011;9041;49.718;21.798;2023-02-26T04:46:55;8.17;;;4.57;;
17832;SDS011;9041;49.718;21.798;2023-02-26T04:49:22;10.13;;;4.67;;
17832;SDS011;9041;49.718;21.798;2023-02-26T04:51:49;7.63;;;4.60;;
17832;SDS011;9041;49.718;21.798;2023-02-26T04:54:15;10.17;;;5.00;;
17832;SDS011;9041;49.718;21.798;2023-02-26T04:56:42;7.00;;;4.53;;
17832;SDS011;9041;49.718;21.798;2023-02-26T04:59:10;8.83;;;5.20;;
17832;SDS011;9041;49.718;21.798;2023-02-26T05:01:37;10.00;;;5.13;;
17832;SDS011;9041;49.718;21.798;2023-02-26T05:04:04;10.63;;;5.60;;
17832;SDS011;9041;49.718;21.798;2023-02-26T05:06:31;11.23;;;5.20;;
17832;SDS011;9041;49.718;21.798;2023-02-26T05:08:58;12.07;;;6.17;;
17832;SDS011;9041;49.718;21.798;2023-02-26T05:11:25;8.93;;;5.23;;
17832;SDS011;9041;49.718;21.798;2023-02-26T05:13:52;8.57;;;5.17;;
17832;SDS011;9041;49.718;21.798;2023-02-26T05:16:20;10.70;;;5.50;;
17832;SDS011;9041;49.718;21.798;2023-02-26T05:18:47;11.23;;;5.60;;
17832;SDS011;9041;49.718;21.798;2023-02-26T05:21:13;9.30;;;5.10;;
17832;SDS011;9041;49.718;21.798;2023-02-26T05:23:40;10.30;;;5.53;;
17832;SDS011;9041;49.718;21.798;2023-02-26T05:26:07;11.77;;;5.23;;
17832;SDS011;9041;49.718;21.798;2023-02-26T05:28:34;7.87;;;4.40;;
17832;SDS011;9041;49.718;21.798;2023-02-26T05:31:02;9.90;;;4.80;;
17832;SDS011;9041;49.718;21.798;2023-02-26T05:33:30;11.77;;;5.37;;
17832;SDS011;9041;49.718;21.798;2023-02-26T05:35:56;12.17;;;5.43;;
17832;SDS011;9041;49.718;21.798;2023-02-26T05:38:24;11.90;;;5.47;;
17832;SDS011;9041;49.718;21.798;2023-02-26T05:40:54;8.13;;;5.03;;
17832;SDS011;9041;49.718;21.798;2023-02-26T05:43:21;8.43;;;4.63;;
17832;SDS011;9041;49.718;21.798;2023-02-26T05:45:48;10.73;;;4.73;;
17832;SDS011;9041;49.718;21.798;2023-02-26T05:48:15;12.03;;;5.23;;
17832;SDS011;9041;49.718;21.798;2023-02-26T05:50:43;8.00;;;4.83;;
17832;SDS011;9041;49.718;21.798;2023-02-26T05:53:10;9.07;;;4.87;;
17832;SDS011;9041;49.718;21.798;2023-02-26T05:55:37;7.53;;;4.83;;
17832;SDS011;9041;49.718;21.798;2023-02-26T05:58:04;9.07;;;5.17;;
17832;SDS011;9041;49.718;21.798;2023-02-26T06:00:30;9.40;;;4.97;;
17832;SDS011;9041;49.718;21.798;2023-02-26T06:02:57;12.47;;;5.40;;
17832;SDS011;9041;49.718;21.798;2023-02-26T06:05:24;8.47;;;5.07;;
17832;SDS011;9041;49.718;21.798;2023-02-26T06:07:52;14.07;;;5.47;;
17832;SDS011;9041;49.718;21.798;2023-02-26T06:10:19;9.07;;;4.57;;
17832;SDS011;9041;49.718;21.798;2023-02-26T06:12:46;10.37;;;5.13;;
17832;SDS011;9041;49.718;21.798;2023-02-26T06:15:13;11.10;;;5.73;;
17832;SDS011;9041;49.718;21.798;2023-02-26T06:17:39;10.63;;;5.73;;
17832;SDS011;9041;49.718;21.798;2023-02-26T06:20:06;9.90;;;5.00;;
17832;SDS011;9041;49.718;21.798;2023-02-26T06:22:34;7.90;;;4.50;;
17832;SDS011;9041;49.718;21.798;2023-02-26T06:25:03;7.27;;;4.20;;
17832;SDS011;9041;49.718;21.798;2023-02-26T06:27:30;10.60;;;4.63;;
17832;SDS011;9041;49.718;21.798;2023-02-26T06:29:57;9.07;;;4.93;;
17832;SDS011;9041;49.718;21.798;2023-02-26T06:32:23;7.50;;;4.53;;
17832;SDS011;9041;49.718;21.798;2023-02-26T06:34:50;9.23;;;4.50;;
17832;SDS011;9041;49.718;21.798;2023-02-26T06:37:19;7.90;;;4.27;;
17832;SDS011;9041;49.718;21.798;2023-02-26T06:39:48;6.60;;;4.00;;
17832;SDS011;9041;49.718;21.798;2023-02-26T06:42:16;5.23;;;3.37;;
17832;SDS011;9041;49.718;21.798;2023-02-26T06:44:42;5.10;;;3.60;;
17832;SDS011;9041;49.718;21.798;2023-02-26T06:47:09;5.90;;;3.70;;
17832;SDS011;9041;49.718;21.798;2023-02-26T06:49:36;6.67;;;3.90;;
17832;SDS011;9041;49.718;21.798;2023-02-26T06:52:03;4.93;;;3.37;;
17832;SDS011;9041;49.718;21.798;2023-02-26T06:54:30;4.77;;;3.37;;
17832;SDS011;9041;49.718;21.798;2023-02-26T06:56:57;9.00;;;3.43;;
17832;SDS011;9041;49.718;21.798;2023-02-26T06:59:25;6.83;;;3.50;;
17832;SDS011;9041;49.718;21.798;2023-02-26T07:01:52;6.80;;;3.83;;
17832;SDS011;9041;49.718;21.798;2023-02-26T07:04:19;5.60;;;3.67;;
17832;SDS011;9041;49.718;21.798;2023-02-26T07:06:46;6.00;;;3.30;;
17832;SDS011;9041;49.718;21.798;2023-02-26T07:09:13;5.00;;;3.13;;
17832;SDS011;9041;49.718;21.798;2023-02-26T07:11:39;6.00;;;3.40;;
17832;SDS011;9041;49.718;21.798;2023-02-26T07:14:06;6.20;;;3.40;;
17832;SDS011;9041;49.718;21.798;2023-02-26T07:16:34;5.33;;;3.23;;
17832;SDS011;9041;49.718;21.798;2023-02-26T07:19:01;7.67;;;3.70;;
17832;SDS011;9041;49.718;21.798;2023-02-26T07:21:28;6.20;;;3.77;;
17832;SDS011;9041;49.718;21.798;2023-02-26T07:23:55;5.83;;;3.53;;
17832;SDS011;9041;49.718;21.798;2023-02-26T07:26:22;5.30;;;3.50;;
17832;SDS011;9041;49.718;21.798;2023-02-26T07:28:49;7.07;;;3.40;;
17832;SDS011;9041;49.718;21.798;2023-02-26T07:31:15;6.90;;;3.60;;
17832;SDS011;9041;49.718;21.798;2023-02-26T07:33:44;8.30;;;3.90;;
17832;SDS011;9041;49.718;21.798;2023-02-26T07:36:10;6.13;;;3.67;;
17832;SDS011;9041;49.718;21.798;2023-02-26T07:38:37;6.63;;;3.47;;
17832;SDS011;9041;49.718;21.798;2023-02-26T07:41:03;5.03;;;3.17;;
17832;SDS011;9041;49.718;21.798;2023-02-26T07:43:30;7.47;;;3.60;;
17832;SDS011;9041;49.718;21.798;2023-02-26T07:45:57;6.20;;;3.63;;
17832;SDS011;9041;49.718;21.798;2023-02-26T07:48:24;5.07;;;3.27;;
17832;SDS011;9041;49.718;21.798;2023-02-26T07:50:52;6.53;;;3.60;;
17832;SDS011;9041;49.718;21.798;2023-02-26T07:53:19;7.07;;;3.27;;
17832;SDS011;9041;49.718;21.798;2023-02-26T07:55:46;4.63;;;3.27;;
17832;SDS011;9041;49.718;21.798;2023-02-26T07:58:13;4.83;;;3.30;;
17832;SDS011;9041;49.718;21.798;2023-02-26T08:00:40;6.20;;;3.10;;
17832;SDS011;9041;49.718;21.798;2023-02-26T08:03:07;5.27;;;2.90;;
17832;SDS011;9041;49.718;21.798;2023-02-26T08:05:33;7.00;;;3.53;;
17832;SDS011;9041;49.718;21.798;2023-02-26T08:08:02;6.83;;;3.53;;
17832;SDS011;9041;49.718;21.798;2023-02-26T08:10:29;8.10;;;3.73;;
17832;SDS011;9041;49.718;21.798;2023-02-26T08:12:56;11.13;;;4.37;;
17832;SDS011;9041;49.718;21.798;2023-02-26T08:15:23;7.17;;;3.73;;
17832;SDS011;9041;49.718;21.798;2023-02-26T08:17:50;9.57;;;3.60;;
17832;SDS011;9041;49.718;21.798;2023-02-26T08:20:18;11.23;;;4.53;;
17832;SDS011;9041;49.718;21.798;2023-02-26T08:22:45;10.73;;;4.67;;
17832;SDS011;9041;49.718;21.798;2023-02-26T08:25:13;10.73;;;4.83;;
17832;SDS011;9041;49.718;21.798;2023-02-26T08:27:40;7.50;;;4.20;;
17832;SDS011;9041;49.718;21.798;2023-02-26T08:30:07;7.73;;;3.87;;
17832;SDS011;9041;49.718;21.798;2023-02-26T08:32:34;8.73;;;4.80;;
17832;SDS011;9041;49.718;21.798;2023-02-26T08:35:03;9.40;;;5.30;;
17832;SDS011;9041;49.718;21.798;2023-02-26T08:37:31;8.33;;;4.30;;
17832;SDS011;9041;49.718;21.798;2023-02-26T08:39:58;7.30;;;4.47;;
17832;SDS011;9041;49.718;21.798;2023-02-26T08:42:26;11.83;;;4.63;;
17832;SDS011;9041;49.718;21.798;2023-02-26T08:44:53;9.87;;;4.30;;
17832;SDS011;9041;49.718;21.798;2023-02-26T08:47:20;9.90;;;4.13;;
17832;SDS011;9041;49.718;21.798;2023-02-26T08:49:46;8.17;;;4.10;;
17832;SDS011;9041;49.718;21.798;2023-02-26T08:52:13;10.60;;;3.80;;
17832;SDS011;9041;49.718;21.798;2023-02-26T08:54:42;10.47;;;4.03;;
17832;SDS011;9041;49.718;21.798;2023-02-26T08:57:08;7.33;;;3.73;;
17832;SDS011;9041;49.718;21.798;2023-02-26T08:59:36;8.10;;;3.70;;
17832;SDS011;9041;49.718;21.798;2023-02-26T09:02:03;11.40;;;4.07;;
17832;SDS011;9041;49.718;21.798;2023-02-26T09:04:30;6.97;;;3.73;;
17832;SDS011;9041;49.718;21.798;2023-02-26T09:06:57;7.57;;;3.77;;
17832;SDS011;9041;49.718;21.798;2023-02-26T09:09:24;6.10;;;3.00;;
17832;SDS011;9041;49.718;21.798;2023-02-26T09:11:50;8.70;;;4.00;;
17832;SDS011;9041;49.718;21.798;2023-02-26T09:14:17;6.07;;;3.30;;
17832;SDS011;9041;49.718;21.798;2023-02-26T09:16:45;6.83;;;3.60;;
17832;SDS011;9041;49.718;21.798;2023-02-26T09:19:12;8.73;;;3.23;;
17832;SDS011;9041;49.718;21.798;2023-02-26T09:21:39;6.70;;;3.17;;
17832;SDS011;9041;49.718;21.798;2023-02-26T09:24:06;8.80;;;3.17;;
17832;SDS011;9041;49.718;21.798;2023-02-26T09:26:33;8.27;;;3.20;;
17832;SDS011;9041;49.718;21.798;2023-02-26T09:29:00;7.73;;;3.20;;
17832;SDS011;9041;49.718;21.798;2023-02-26T09:31:27;5.13;;;2.97;;
17832;SDS011;9041;49.718;21.798;2023-02-26T09:33:55;6.37;;;3.27;;
17832;SDS011;9041;49.718;21.798;2023-02-26T09:36:22;8.17;;;4.00;;
17832;SDS011;9041;49.718;21.798;2023-02-26T09:38:49;9.00;;;3.50;;
17832;SDS011;9041;49.718;21.798;2023-02-26T09:41:17;8.63;;;3.37;;
17832;SDS011;9041;49.718;21.798;2023-02-26T09:43:58;7.13;;;3.60;;
17832;SDS011;9041;49.718;21.798;2023-02-26T09:46:31;6.00;;;3.10;;
17832;SDS011;9041;49.718;21.798;2023-02-26T09:49:06;5.37;;;2.90;;
17832;SDS011;9041;49.718;21.798;2023-02-26T09:51:41;6.40;;;2.70;;
17832;SDS011;9041;49.718;21.798;2023-02-26T09:54:13;4.67;;;3.03;;
17832;SDS011;9041;49.718;21.798;2023-02-26T09:56:42;8.07;;;3.57;;
17832;SDS011;9041;49.718;21.798;2023-02-26T09:59:09;9.73;;;3.53;;
17832;SDS011;9041;49.718;21.798;2023-02-26T10:01:37;6.93;;;3.00;;
17832;SDS011;9041;49.718;21.798;2023-02-26T10:04:12;5.53;;;2.80;;
17832;SDS011;9041;49.718;21.798;2023-02-26T10:06:47;3.93;;;2.80;;
17832;SDS011;9041;49.718;21.798;2023-02-26T10:09:25;3.63;;;2.60;;
17832;SDS011;9041;49.718;21.798;2023-02-26T10:11:59;6.67;;;3.10;;
17832;SDS011;9041;49.718;21.798;2023-02-26T10:14:31;4.03;;;2.53;;
17832;SDS011;9041;49.718;21.798;2023-02-26T10:17:02;4.77;;;2.70;;
17832;SDS011;9041;49.718;21.798;2023-02-26T10:19:34;3.13;;;2.47;;
17832;SDS011;9041;49.718;21.798;2023-02-26T10:22:04;5.50;;;3.00;;
17832;SDS011;9041;49.718;21.798;2023-02-26T10:24:39;4.83;;;3.00;;
17832;SDS011;9041;49.718;21.798;2023-02-26T10:27:10;3.00;;;2.30;;
17832;SDS011;9041;49.718;21.798;2023-02-26T10:29:42;5.90;;;2.30;;
17832;SDS011;9041;49.718;21.798;2023-02-26T10:32:16;6.00;;;2.17;;
17832;SDS011;9041;49.718;21.798;2023-02-26T10:34:51;5.87;;;2.57;;
17832;SDS011;9041;49.718;21.798;2023-02-26T10:37:22;2.87;;;1.90;;
17832;SDS011;9041;49.718;21.798;2023-02-26T10:39:55;3.17;;;2.20;;
17832;SDS011;9041;49.718;21.798;2023-02-26T10:42:26;6.67;;;2.60;;
17832;SDS011;9041;49.718;21.798;2023-02-26T10:45:06;5.43;;;2.60;;
17832;SDS011;9041;49.718;21.798;2023-02-26T10:47:39;4.67;;;2.97;;
17832;SDS011;9041;49.718;21.798;2023-02-26T10:50:12;3.90;;;2.40;;
17832;SDS011;9041;49.718;21.798;2023-02-26T10:52:41;2.70;;;2.20;;
17832;SDS011;9041;49.718;21.798;2023-02-26T10:55:17;3.13;;;2.07;;
17832;SDS011;9041;49.718;21.798;2023-02-26T10:57:52;4.07;;;3.13;;
17832;SDS011;9041;49.718;21.798;2023-02-26T11:00:22;7.60;;;3.63;;
17832;SDS011;9041;49.718;21.798;2023-02-26T11:02:49;8.17;;;3.43;;
17832;SDS011;9041;49.718;21.798;2023-02-26T11:05:20;5.47;;;2.90;;
17832;SDS011;9041;49.718;21.798;2023-02-26T11:07:48;4.37;;;2.43;;
17832;SDS011;9041;49.718;21.798;2023-02-26T11:10:17;4.33;;;2.67;;
17832;SDS011;9041;49.718;21.798;2023-02-26T11:12:45;4.87;;;2.70;;
17832;SDS011;9041;49.718;21.798;2023-02-26T11:15:13;4.20;;;2.50;;
17832;SDS011;9041;49.718;21.798;2023-02-26T11:17:41;4.57;;;2.37;;
17832;SDS011;9041;49.718;21.798;2023-02-26T11:20:12;3.97;;;2.50;;
17832;SDS011;9041;49.718;21.798;2023-02-26T11:22:46;6.27;;;2.80;;
17832;SDS011;9041;49.718;21.798;2023-02-26T11:25:16;4.63;;;2.70;;
17832;SDS011;9041;49.718;21.798;2023-02-26T11:27:46;5.47;;;2.80;;
17832;SDS011;9041;49.718;21.798;2023-02-26T11:30:15;8.07;;;2.80;;
17832;SDS011;9041;49.718;21.798;2023-02-26T11:32:43;4.97;;;2.60;;
17832;SDS011;9041;49.718;21.798;2023-02-26T11:35:13;4.20;;;2.43;;
17832;SDS011;9041;49.718;21.798;2023-02-26T11:37:41;5.10;;;2.83;;
17832;SDS011;9041;49.718;21.798;2023-02-26T11:40:13;10.53;;;3.20;;
17832;SDS011;9041;49.718;21.798;2023-02-26T11:42:43;5.47;;;2.93;;
17832;SDS011;9041;49.718;21.798;2023-02-26T11:45:13;6.93;;;2.97;;
17832;SDS011;9041;49.718;21.798;2023-02-26T11:47:42;7.60;;;3.40;;
17832;SDS011;9041;49.718;21.798;2023-02-26T11:50:11;13.77;;;4.13;;
17832;SDS011;9041;49.718;21.798;2023-02-26T11:52:41;9.10;;;3.80;;
17832;SDS011;9041;49.718;21.798;2023-02-26T11:55:18;5.63;;;3.37;;
17832;SDS011;9041;49.718;21.798;2023-02-26T11:57:49;7.00;;;3.30;;
17832;SDS011;9041;49.718;21.798;2023-02-26T12:00:19;8.47;;;4.07;;
17832;SDS011;9041;49.718;21.798;2023-02-26T12:02:49;7.10;;;3.37;;
17832;SDS011;9041;49.718;21.798;2023-02-26T12:05:16;7.03;;;3.40;;
17832;SDS011;9041;49.718;21.798;2023-02-26T12:07:43;8.63;;;3.80;;
17832;SDS011;9041;49.718;21.798;2023-02-26T12:10:13;5.40;;;3.47;;
17832;SDS011;9041;49.718;21.798;2023-02-26T12:12:49;6.90;;;3.07;;
17832;SDS011;9041;49.718;21.798;2023-02-26T12:15:26;6.37;;;3.10;;
17832;SDS011;9041;49.718;21.798;2023-02-26T12:18:02;6.33;;;3.00;;
17832;SDS011;9041;49.718;21.798;2023-02-26T12:20:37;5.03;;;3.03;;
17832;SDS011;9041;49.718;21.798;2023-02-26T12:23:17;3.53;;;2.40;;
17832;SDS011;9041;49.718;21.798;2023-02-26T12:25:57;8.23;;;2.90;;
17832;SDS011;9041;49.718;21.798;2023-02-26T12:28:33;7.70;;;2.73;;
17832;SDS011;9041;49.718;21.798;2023-02-26T12:34:09;7.03;;;3.43;;
17832;SDS011;9041;49.718;21.798;2023-02-26T12:36:48;6.87;;;3.63;;
17832;SDS011;9041;49.718;21.798;2023-02-26T12:39:41;11.17;;;4.43;;
17832;SDS011;9041;49.718;21.798;2023-02-26T12:42:17;7.90;;;4.03;;
17832;SDS011;9041;49.718;21.798;2023-02-26T12:45:05;11.67;;;4.60;;
17832;SDS011;9041;49.718;21.798;2023-02-26T12:47:46;7.67;;;4.03;;
17832;SDS011;9041;49.718;21.798;2023-02-26T12:50:25;6.40;;;3.83;;
17832;SDS011;9041;49.718;21.798;2023-02-26T12:55:48;7.57;;;3.80;;
17832;SDS011;9041;49.718;21.798;2023-02-26T13:01:21;7.23;;;3.70;;
17832;SDS011;9041;49.718;21.798;2023-02-26T13:07:10;6.63;;;3.57;;
17832;SDS011;9041;49.718;21.798;2023-02-26T13:10:00;8.87;;;4.27;;
17832;SDS011;9041;49.718;21.798;2023-02-26T13:12:32;6.90;;;4.40;;
17832;SDS011;9041;49.718;21.798;2023-02-26T13:15:10;8.83;;;4.20;;
17832;SDS011;9041;49.718;21.798;2023-02-26T13:17:48;8.23;;;4.77;;
17832;SDS011;9041;49.718;21.798;2023-02-26T13:20:21;9.97;;;4.40;;
17832;SDS011;9041;49.718;21.798;2023-02-26T13:22:50;10.10;;;4.73;;
17832;SDS011;9041;49.718;21.798;2023-02-26T13:25:21;10.37;;;4.80;;
17832;SDS011;9041;49.718;21.798;2023-02-26T13:27:49;9.57;;;4.10;;
17832;SDS011;9041;49.718;21.798;2023-02-26T13:30:21;10.07;;;4.13;;
17832;SDS011;9041;49.718;21.798;2023-02-26T13:32:53;7.20;;;4.17;;
17832;SDS011;9041;49.718;21.798;2023-02-26T13:35:24;13.37;;;5.10;;
17832;SDS011;9041;49.718;21.798;2023-02-26T13:37:53;12.30;;;4.77;;
17832;SDS011;9041;49.718;21.798;2023-02-26T13:40:33;11.37;;;4.43;;
17832;SDS011;9041;49.718;21.798;2023-02-26T13:46:05;10.57;;;4.40;;
17832;SDS011;9041;49.718;21.798;2023-02-26T13:48:47;7.83;;;3.93;;
17832;SDS011;9041;49.718;21.798;2023-02-26T13:51:23;9.10;;;4.67;;
17832;SDS011;9041;49.718;21.798;2023-02-26T13:53:54;7.63;;;4.50;;
17832;SDS011;9041;49.718;21.798;2023-02-26T13:56:46;10.27;;;5.23;;
17832;SDS011;9041;49.718;21.798;2023-02-26T13:59:27;9.33;;;4.37;;
17832;SDS011;9041;49.718;21.798;2023-02-26T14:01:57;11.60;;;4.70;;
17832;SDS011;9041;49.718;21.798;2023-02-26T14:04:30;10.63;;;4.83;;
17832;SDS011;9041;49.718;21.798;2023-02-26T14:06:58;11.83;;;4.10;;
17832;SDS011;9041;49.718;21.798;2023-02-26T14:09:35;7.43;;;4.53;;
17832;SDS011;9041;49.718;21.798;2023-02-26T14:12:03;9.27;;;4.77;;
17832;SDS011;9041;49.718;21.798;2023-02-26T14:14:33;12.77;;;4.93;;
17832;SDS011;9041;49.718;21.798;2023-02-26T14:23:10;8.43;;;4.13;;
17832;SDS011;9041;49.718;21.798;2023-02-26T14:25:39;7.43;;;4.40;;
17832;SDS011;9041;49.718;21.798;2023-02-26T14:31:06;7.13;;;3.93;;
17832;SDS011;9041;49.718;21.798;2023-02-26T14:34:01;7.10;;;3.30;;
17832;SDS011;9041;49.718;21.798;2023-02-26T14:36:35;8.30;;;3.97;;
17832;SDS011;9041;49.718;21.798;2023-02-26T14:39:07;7.47;;;3.90;;
17832;SDS011;9041;49.718;21.798;2023-02-26T14:41:39;5.77;;;3.90;;
17832;SDS011;9041;49.718;21.798;2023-02-26T14:44:09;8.80;;;4.30;;
17832;SDS011;9041;49.718;21.798;2023-02-26T14:46:38;11.30;;;4.70;;
17832;SDS011;9041;49.718;21.798;2023-02-26T14:49:05;7.43;;;3.93;;
17832;SDS011;9041;49.718;21.798;2023-02-26T14:51:41;8.00;;;4.30;;
17832;SDS011;9041;49.718;21.798;2023-02-26T14:54:21;6.80;;;4.13;;
17832;SDS011;9041;49.718;21.798;2023-02-26T14:56:56;9.27;;;4.97;;
17832;SDS011;9041;49.718;21.798;2023-02-26T14:59:37;7.83;;;4.60;;
17832;SDS011;9041;49.718;21.798;2023-02-26T15:02:16;9.03;;;4.50;;
17832;SDS011;9041;49.718;21.798;2023-02-26T15:05:21;8.63;;;4.43;;
17832;SDS011;9041;49.718;21.798;2023-02-26T15:07:59;8.67;;;4.30;;
17832;SDS011;9041;49.718;21.798;2023-02-26T15:10:39;7.30;;;3.83;;
17832;SDS011;9041;49.718;21.798;2023-02-26T15:13:31;7.37;;;4.10;;
17832;SDS011;9041;49.718;21.798;2023-02-26T15:16:04;8.73;;;4.30;;
17832;SDS011;9041;49.718;21.798;2023-02-26T15:18:41;8.00;;;4.07;;
17832;SDS011;9041;49.718;21.798;2023-02-26T15:21:25;11.63;;;5.07;;
17832;SDS011;9041;49.718;21.798;2023-02-26T15:23:58;10.50;;;5.30;;
17832;SDS011;9041;49.718;21.798;2023-02-26T15:26:27;10.33;;;4.60;;